Time;durP1;ratioP1;P1;durP2;ratioP2;P2;SDS_P1;SDS_P2;PMS_P1;PMS_P2;Temp;Humidity;BMP_temperature;BMP_pressure;BME280_temperature;BME280_humidity;BME280_pressure;Samples;Min_cycle;Max_cycle;Signal;HPM_P1;HPM_P2
2021/11/13 00:02:11;;;;;;;66.68;23.45;;;;;;;8.22;100.00;101040.97;5218884;28;20017;-74
2021/11/13 00:04:42;;;;;;;63.85;24.20;;;;;;;8.23;100.00;101041.81;5218632;28;20029;-74
2021/11/13 00:07:12;;;;;;;74.45;25.15;;;;;;;8.25;100.00;101040.69;5217889;28;20420;-74
2021/11/13 00:09:43;;;;;;;63.05;25.60;;;;;;;8.29;100.00;101030.56;5219805;28;20025;-74
2021/11/13 00:12:13;;;;;;;68.03;25.13;;;;;;;8.29;100.00;101035.91;5220167;28;20190;-74
2021/11/13 00:14:46;;;;;;;73.97;26.13;;;;;;;8.28;100.00;101027.03;5214324;28;20025;-74
2021/11/13 00:17:17;;;;;;;66.13;26.42;;;;;;;8.28;100.00;101028.84;5199440;28;20032;-74
2021/11/13 00:19:47;;;;;;;65.20;25.73;;;;;;;8.29;100.00;101019.88;5199158;28;20017;-74
2021/11/13 00:22:18;;;;;;;66.43;25.85;;;;;;;8.29;100.00;101011.84;5212932;28;20029;-74
2021/11/13 00:24:48;;;;;;;73.95;28.33;;;;;;;8.31;100.00;101017.88;5219109;28;20710;-74
2021/11/13 00:27:19;;;;;;;73.55;25.85;;;;;;;8.35;100.00;101013.91;5219435;28;20033;-74
2021/11/13 00:29:49;;;;;;;71.88;27.42;;;;;;;8.35;100.00;101010.41;5220718;28;20037;-74
2021/11/13 00:32:20;;;;;;;79.70;28.70;;;;;;;8.36;100.00;101007.59;5221570;28;20453;-74
2021/11/13 00:34:50;;;;;;;68.90;27.70;;;;;;;8.37;100.00;101009.28;5215441;28;20022;-73
2021/11/13 00:37:21;;;;;;;77.95;28.13;;;;;;;8.37;100.00;101009.28;5206664;28;20086;-74
2021/11/13 00:39:52;;;;;;;61.75;25.80;;;;;;;8.40;100.00;100997.47;5223480;28;20017;-74
2021/11/13 00:42:22;;;;;;;71.03;27.35;;;;;;;8.42;100.00;101006.19;5224485;28;20028;-74
2021/11/13 00:44:53;;;;;;;76.50;27.88;;;;;;;8.43;100.00;100994.47;5224370;28;20381;-73
2021/11/13 00:47:23;;;;;;;68.18;27.40;;;;;;;8.42;100.00;100993.66;5203319;28;20532;-73
2021/11/13 00:49:54;;;;;;;74.30;28.85;;;;;;;8.45;100.00;100989.84;5245686;23;20148;-74
2021/11/13 00:52:25;;;;;;;64.50;27.15;;;;;;;8.45;100.00;100992.53;5223786;28;20021;-75
2021/11/13 00:54:55;;;;;;;73.28;27.85;;;;;;;8.46;100.00;100997.72;5224344;28;20025;-75
2021/11/13 00:57:26;;;;;;;80.50;28.33;;;;;;;8.48;100.00;100990.41;5223838;28;20057;-75
2021/11/13 00:59:56;;;;;;;71.65;28.55;;;;;;;8.48;100.00;100993.06;5224062;28;20106;-74
2021/11/13 01:02:27;;;;;;;70.13;27.65;;;;;;;8.49;100.00;100991.25;5225196;28;20024;-75
2021/11/13 01:04:57;;;;;;;71.38;29.38;;;;;;;8.51;100.00;100989.25;5228134;28;20108;-73
2021/11/13 01:07:28;;;;;;;71.07;27.40;;;;;;;8.52;100.00;100986.41;5204548;28;20017;-74
2021/11/13 01:09:58;;;;;;;69.35;27.80;;;;;;;8.54;100.00;100980.94;5224494;28;20021;-75
2021/11/13 01:12:29;;;;;;;65.18;28.65;;;;;;;8.55;100.00;100978.09;5224256;28;20032;-75
2021/11/13 01:15:00;;;;;;;72.18;26.88;;;;;;;8.56;100.00;100981.63;5223783;28;20025;-75
2021/11/13 01:17:30;;;;;;;68.35;26.42;;;;;;;8.55;100.00;100975.44;5223038;28;20039;-74
2021/11/13 01:20:01;;;;;;;63.20;27.63;;;;;;;8.54;100.00;100967.56;5223853;28;20029;-74
2021/11/13 01:22:32;;;;;;;70.68;28.50;;;;;;;8.55;100.00;100966.56;5223769;28;20025;-75
2021/11/13 01:25:04;;;;;;;67.18;26.50;;;;;;;8.56;100.00;100963.72;5223536;28;20159;-74
2021/11/13 01:27:34;;;;;;;66.00;26.75;;;;;;;8.56;100.00;100963.72;5222842;28;20051;-73
2021/11/13 01:30:07;;;;;;;67.18;27.17;;;;;;;8.58;100.00;100963.56;5223118;28;20509;-73
2021/11/13 01:32:38;;;;;;;64.50;27.17;;;;;;;8.61;100.00;100959.78;5223419;28;20090;-73
2021/11/13 01:35:09;;;;;;;65.50;27.13;;;;;;;8.63;100.00;100963.13;5223168;28;20025;-73
2021/11/13 01:37:39;;;;;;;60.00;25.65;;;;;;;8.65;100.00;100956.66;5205051;28;20056;-73
2021/11/13 01:40:14;;;;;;;61.30;24.67;;;;;;;8.64;100.00;100948.78;5223086;28;20539;-74
2021/11/13 01:42:46;;;;;;;61.03;25.05;;;;;;;8.67;100.00;100951.13;5223371;28;20307;-73
2021/11/13 01:45:17;;;;;;;63.95;25.08;;;;;;;8.68;100.00;100955.50;5223024;28;20057;-74
2021/11/13 01:47:48;;;;;;;50.70;23.55;;;;;;;8.71;100.00;100949.84;5222922;28;20100;-73
2021/11/13 01:50:24;;;;;;;61.65;25.98;;;;;;;8.69;100.00;100958.03;5223090;28;20454;-73
2021/11/13 01:52:55;;;;;;;59.28;24.08;;;;;;;8.72;100.00;100956.88;5223090;28;20029;-74
2021/11/13 01:55:28;;;;;;;58.53;25.15;;;;;;;8.68;100.00;100952.81;5223316;28;20064;-73
2021/11/13 01:58:01;;;;;;;53.55;25.10;;;;;;;8.74;100.00;100952.22;5223293;28;20052;-74
2021/11/13 02:00:36;;;;;;;56.38;25.02;;;;;;;8.75;100.00;100948.56;5223044;28;20055;-74
2021/11/13 02:03:06;;;;;;;57.03;25.73;;;;;;;8.75;100.00;100952.06;5222642;28;20099;-74
2021/11/13 02:05:37;;;;;;;52.95;25.67;;;;;;;8.77;100.00;100946.56;5223293;28;20021;-75
2021/11/13 02:08:18;;;;;;;56.90;25.10;;;;;;;8.81;100.00;100945.28;5222986;28;20028;-73
2021/11/13 02:10:56;;;;;;;57.58;25.02;;;;;;;8.82;100.00;100945.09;5223153;28;20021;-74
2021/11/13 02:13:27;;;;;;;61.92;23.80;;;;;;;8.84;100.00;100941.47;5222206;28;20219;-74
2021/11/13 02:15:57;;;;;;;51.63;23.42;;;;;;;8.87;100.00;100944.66;5222668;28;20104;-74
2021/11/13 02:18:45;;;;;;;54.83;23.92;;;;;;;8.90;100.00;100932.81;5222537;28;20074;-73
2021/11/13 02:21:16;;;;;;;55.58;23.80;;;;;;;8.92;100.00;100937.00;5222580;28;20025;-74
2021/11/13 02:23:48;;;;;;;50.67;22.80;;;;;;;8.95;100.00;100934.03;5222596;28;20100;-73
2021/11/13 02:26:19;;;;;;;51.70;23.05;;;;;;;8.96;100.00;100929.53;5222584;28;20110;-73
2021/11/13 02:28:54;;;;;;;47.22;22.67;;;;;;;8.96;100.00;100927.69;5222012;28;20025;-73
2021/11/13 02:31:34;;;;;;;61.67;24.48;;;;;;;8.97;100.00;100923.16;5210087;28;20102;-73
2021/11/13 02:34:06;;;;;;;62.10;25.58;;;;;;;8.98;100.00;100920.34;5222745;28;20049;-74
2021/11/13 02:36:38;;;;;;;58.25;24.27;;;;;;;8.98;100.00;100919.50;5222470;28;20025;-73
2021/11/13 02:39:11;;;;;;;54.65;24.40;;;;;;;8.97;100.00;100923.16;5217158;28;20044;-74
2021/11/13 02:41:44;;;;;;;51.78;24.58;;;;;;;9.01;100.00;100913.84;5214342;28;20048;-73
2021/11/13 02:44:17;;;;;;;54.63;24.17;;;;;;;8.98;100.00;100914.97;5222731;28;20497;-74
2021/11/13 02:46:50;;;;;;;56.17;24.20;;;;;;;8.98;100.00;100914.97;5222147;28;20021;-73
2021/11/13 02:49:21;;;;;;;65.72;24.55;;;;;;;9.00;100.00;100914.84;5221524;28;20028;-74
2021/11/13 02:51:52;;;;;;;61.90;25.75;;;;;;;9.00;100.00;100909.50;5221991;28;20473;-73
2021/11/13 02:54:22;;;;;;;66.10;26.45;;;;;;;9.00;100.00;100913.00;5221657;28;20020;-73
2021/11/13 02:56:53;;;;;;;64.20;26.83;;;;;;;9.06;100.00;100916.91;5221440;28;20032;-74
2021/11/13 02:59:24;;;;;;;66.18;26.80;;;;;;;9.04;100.00;100917.06;5221150;28;20021;-74
2021/11/13 03:01:54;;;;;;;70.97;27.33;;;;;;;9.07;100.00;100907.88;5221979;28;20166;-73
2021/11/13 03:04:25;;;;;;;63.13;26.45;;;;;;;9.10;100.00;100915.59;5221506;28;20024;-75
2021/11/13 03:06:56;;;;;;;63.45;26.02;;;;;;;9.13;100.00;100922.47;5217487;28;20274;-75
2021/11/13 03:09:26;;;;;;;62.40;26.60;;;;;;;9.14;100.00;100918.81;5221198;28;20044;-74
2021/11/13 03:11:57;;;;;;;59.65;26.45;;;;;;;9.13;100.00;100914.44;5220940;28;20033;-74
2021/11/13 03:14:33;;;;;;;61.08;25.50;;;;;;;9.14;100.00;100916.97;5221194;28;20021;-74
2021/11/13 03:17:06;;;;;;;66.03;25.40;;;;;;;9.15;100.00;100915.13;5221983;28;20513;-74
2021/11/13 03:19:36;;;;;;;64.93;25.17;;;;;;;9.16;100.00;100912.28;5221562;28;20025;-74
2021/11/13 03:22:07;;;;;;;66.63;26.80;;;;;;;9.17;100.00;100910.47;5221614;28;20162;-74
2021/11/13 03:24:38;;;;;;;62.58;24.23;;;;;;;9.19;100.00;100905.81;5220905;28;20029;-74
2021/11/13 03:27:09;;;;;;;55.05;23.67;;;;;;;9.21;100.00;100914.50;5221527;28;20024;-73
2021/11/13 03:29:41;;;;;;;52.42;23.27;;;;;;;9.23;100.00;100912.50;5220707;28;20027;-74
2021/11/13 03:32:11;;;;;;;51.42;22.33;;;;;;;9.23;100.00;100901.78;5221389;28;20039;-74
2021/11/13 03:34:42;;;;;;;55.78;21.42;;;;;;;9.22;100.00;100906.31;5221156;28;20413;-73
2021/11/13 03:37:13;;;;;;;46.67;20.50;;;;;;;9.27;100.00;100900.50;5220783;28;20083;-73
2021/11/13 03:39:44;;;;;;;45.50;19.30;;;;;;;9.28;100.00;100905.69;5220697;28;20110;-74
2021/11/13 03:42:15;;;;;;;42.90;20.20;;;;;;;9.28;100.00;100897.66;5221032;28;20061;-74
2021/11/13 03:44:45;;;;;;;46.90;19.50;;;;;;;9.29;100.00;100896.69;5220975;28;20032;-74
2021/11/13 03:47:16;;;;;;;47.40;18.95;;;;;;;9.28;100.00;100894.13;5220353;28;20544;-74
2021/11/13 03:49:46;;;;;;;42.60;19.05;;;;;;;9.29;100.00;100890.50;5220540;28;20090;-74
2021/11/13 03:52:17;;;;;;;41.40;17.48;;;;;;;9.28;100.00;100892.28;5221061;28;20482;-74
2021/11/13 03:54:48;;;;;;;39.42;17.75;;;;;;;9.28;100.00;100894.97;5220772;28;20033;-74
2021/11/13 03:57:18;;;;;;;34.08;16.42;;;;;;;9.27;100.00;100892.47;5221055;28;20523;-72
2021/11/13 03:59:49;;;;;;;39.70;16.13;;;;;;;9.27;100.00;100895.97;5220589;28;20036;-75
2021/11/13 04:02:20;;;;;;;37.40;16.55;;;;;;;9.26;100.00;100896.13;5203369;28;20082;-73
2021/11/13 04:04:50;;;;;;;37.28;16.30;;;;;;;9.23;100.00;100893.75;5220600;28;20028;-73
2021/11/13 04:07:21;;;;;;;38.25;14.95;;;;;;;9.21;100.00;100895.78;5214853;28;20377;-73
2021/11/13 04:09:51;;;;;;;31.17;14.07;;;;;;;9.19;100.00;100897.78;5220272;28;20080;-75
2021/11/13 04:12:21;;;;;;;31.20;14.02;;;;;;;9.17;100.00;100908.63;5220927;28;20470;-74
2021/11/13 04:14:52;;;;;;;34.80;14.02;;;;;;;9.17;100.00;100897.06;5220365;28;20040;-73
2021/11/13 04:17:22;;;;;;;28.40;14.35;;;;;;;9.19;100.00;100901.28;5220290;28;20083;-73
2021/11/13 04:19:53;;;;;;;27.02;13.23;;;;;;;9.19;100.00;100908.47;5220430;28;20052;-73
2021/11/13 04:22:24;;;;;;;26.05;12.40;;;;;;;9.18;100.00;100907.63;5220435;28;20031;-73
2021/11/13 04:24:55;;;;;;;22.30;10.68;;;;;;;9.21;100.00;100909.16;5219820;28;20025;-72
2021/11/13 04:27:25;;;;;;;21.25;11.65;;;;;;;9.21;100.00;100912.66;5219914;28;20073;-73
2021/11/13 04:29:55;;;;;;;22.88;10.85;;;;;;;9.22;100.00;100908.16;5220509;28;20052;-72
2021/11/13 04:32:29;;;;;;;21.88;11.68;;;;;;;9.21;100.00;100910.00;5220734;28;20029;-73
2021/11/13 04:37:31;;;;;;;15.77;8.35;;;;;;;9.28;100.00;100912.88;5220365;28;20692;-72
2021/11/13 04:40:01;;;;;;;21.52;9.80;;;;;;;9.29;100.00;100911.91;5220977;28;20206;-73
2021/11/13 04:42:32;;;;;;;14.40;7.82;;;;;;;9.31;100.00;100918.75;5220855;28;20021;-75
2021/11/13 04:45:03;;;;;;;18.15;9.40;;;;;;;9.34;100.00;100913.13;5202806;28;20033;-72
2021/11/13 04:47:34;;;;;;;20.98;8.98;;;;;;;9.36;100.00;100920.97;5220434;28;20468;-73
2021/11/13 04:50:07;;;;;;;16.05;8.73;;;;;;;9.41;100.00;100923.19;5220027;28;20120;-72
2021/11/13 04:52:37;;;;;;;18.48;9.35;;;;;;;9.41;100.00;100923.19;5220569;28;20033;-74
2021/11/13 04:55:08;;;;;;;28.80;9.68;;;;;;;9.40;100.00;100922.34;5219897;28;20103;-73
2021/11/13 04:57:39;;;;;;;23.40;9.43;;;;;;;9.43;100.00;100921.19;5220202;28;20524;-73
2021/11/13 05:00:14;;;;;;;18.45;8.80;;;;;;;9.45;100.00;100917.38;5220096;28;20032;-73
2021/11/13 05:02:44;;;;;;;19.90;9.50;;;;;;;9.45;100.00;100919.22;5220346;28;20025;-74
2021/11/13 05:05:15;;;;;;;19.90;9.50;;;;;;;9.45;100.00;100917.38;5220744;28;20393;-74
2021/11/13 05:07:45;;;;;;;24.77;10.52;;;;;;;9.43;100.00;100905.94;5202023;28;20032;-73
2021/11/13 05:10:17;;;;;;;30.23;12.80;;;;;;;9.44;100.00;100928.22;5220066;28;20017;-74
2021/11/13 05:12:48;;;;;;;28.35;12.95;;;;;;;9.44;100.00;100934.44;5219795;28;20045;-74
2021/11/13 05:15:19;;;;;;;22.23;11.32;;;;;;;9.46;100.00;100929.75;5202649;28;20425;-73
2021/11/13 05:17:50;;;;;;;30.08;12.65;;;;;;;9.47;100.00;100930.59;5220175;28;20021;-73
2021/11/13 05:20:21;;;;;;;29.27;12.20;;;;;;;9.47;100.00;100927.91;5224586;28;20025;-73
2021/11/13 05:22:51;;;;;;;27.38;12.90;;;;;;;9.47;100.00;100942.13;5224564;28;20493;-74
2021/11/13 05:25:22;;;;;;;25.88;12.52;;;;;;;9.50;100.00;100930.28;5205714;28;20087;-74
2021/11/13 05:27:53;;;;;;;31.52;13.07;;;;;;;9.48;100.00;100929.59;5223315;28;20480;-74
2021/11/13 05:30:26;;;;;;;29.20;13.27;;;;;;;9.47;100.00;100927.91;5224017;28;20025;-73
2021/11/13 05:32:57;;;;;;;25.55;12.98;;;;;;;9.50;100.00;100930.28;5223914;28;20021;-73
2021/11/13 05:35:27;;;;;;;30.15;14.48;;;;;;;9.49;100.00;100925.94;5223586;28;20036;-73
2021/11/13 05:37:58;;;;;;;29.30;12.65;;;;;;;9.48;100.00;100927.75;5222941;28;20060;-74
2021/11/13 05:40:28;;;;;;;28.38;13.48;;;;;;;9.52;100.00;100929.13;5223557;28;20489;-73
2021/11/13 05:42:59;;;;;;;29.55;12.30;;;;;;;9.53;100.00;100935.31;5223965;28;20114;-74
2021/11/13 05:45:29;;;;;;;35.78;13.48;;;;;;;9.54;100.00;100934.34;5223307;28;20450;-73
2021/11/13 05:48:00;;;;;;;29.48;12.55;;;;;;;9.53;100.00;100929.94;5223017;28;20383;-75
2021/11/13 05:50:31;;;;;;;28.02;12.98;;;;;;;9.53;100.00;100936.16;5223541;28;20032;-74
2021/11/13 05:53:02;;;;;;;31.10;12.02;;;;;;;9.59;100.00;100945.41;5223597;28;20381;-74
2021/11/13 05:55:32;;;;;;;32.97;13.10;;;;;;;9.63;100.00;100948.59;5223190;28;20409;-74
2021/11/13 05:58:03;;;;;;;34.13;14.30;;;;;;;9.69;100.00;100958.69;5223416;28;20013;-73
2021/11/13 06:00:35;;;;;;;27.42;12.93;;;;;;;9.62;100.00;100961.16;5223746;28;20450;-73
2021/11/13 06:03:05;;;;;;;27.50;12.50;;;;;;;9.58;100.00;100955.25;5223147;28;20021;-74
2021/11/13 06:05:36;;;;;;;42.22;19.60;;;;;;;9.57;100.00;100964.31;5223046;28;20539;-73
2021/11/13 06:08:06;;;;;;;27.88;13.48;;;;;;;9.57;100.00;100972.34;5218222;28;20792;-72
2021/11/13 06:10:38;;;;;;;41.95;21.42;;;;;;;9.60;100.00;100969.34;5223329;28;20495;-75
2021/11/13 06:13:09;;;;;;;42.15;18.00;;;;;;;9.73;100.00;100982.31;5222978;28;20094;-73
2021/11/13 06:15:39;;;;;;;39.08;24.63;;;;;;;9.69;100.00;100972.94;5223919;28;20028;-73
2021/11/13 06:18:10;;;;;;;38.35;13.23;;;;;;;9.66;100.00;100975.91;5223912;28;20082;-74
2021/11/13 06:20:40;;;;;;;31.45;14.55;;;;;;;9.62;100.00;100982.59;5224906;28;20020;-73
2021/11/13 06:23:11;;;;;;;32.83;16.08;;;;;;;9.63;100.00;100991.47;5224426;28;20265;-73
2021/11/13 06:25:42;;;;;;;37.90;15.77;;;;;;;9.59;100.00;100988.28;5223941;28;20028;-72
2021/11/13 06:28:12;;;;;;;37.40;17.00;;;;;;;9.62;100.00;100989.78;5222934;28;20036;-72
2021/11/13 06:30:43;;;;;;;37.80;15.20;;;;;;;9.60;100.00;100987.28;5221802;28;20182;-72
2021/11/13 06:33:13;;;;;;;37.60;15.98;;;;;;;9.62;100.00;100993.28;5222991;28;20416;-72
2021/11/13 06:35:44;;;;;;;35.45;16.00;;;;;;;9.59;100.00;100997.16;5222841;28;20024;-72
2021/11/13 06:38:15;;;;;;;40.70;15.93;;;;;;;9.58;100.00;100999.97;5222408;28;20033;-73
2021/11/13 06:40:45;;;;;;;46.50;16.13;;;;;;;9.54;100.00;100998.63;5222897;28;20309;-73
2021/11/13 06:43:16;;;;;;;34.88;16.17;;;;;;;9.54;100.00;101007.50;5222680;28;20028;-73
2021/11/13 06:45:48;;;;;;;35.50;15.32;;;;;;;9.53;100.00;100999.59;5222527;28;20029;-73
2021/11/13 06:48:20;;;;;;;33.20;15.32;;;;;;;9.51;100.00;100997.06;5221989;28;20024;-72
2021/11/13 06:50:52;;;;;;;39.30;16.27;;;;;;;9.51;100.00;101007.78;5222209;28;20418;-72
2021/11/13 06:53:22;;;;;;;48.33;22.15;;;;;;;9.51;100.00;101012.31;5222518;28;20063;-72
2021/11/13 06:55:53;;;;;;;40.25;16.23;;;;;;;9.53;100.00;101016.50;5222191;28;20033;-72
2021/11/13 06:58:23;;;;;;;42.88;17.17;;;;;;;9.56;100.00;101013.50;5221845;28;20471;-73
2021/11/13 07:00:54;;;;;;;36.78;14.63;;;;;;;9.63;100.00;101023.59;5222110;28;20029;-73
2021/11/13 07:03:24;;;;;;;37.92;15.02;;;;;;;9.66;100.00;101024.13;5221721;28;20044;-73
2021/11/13 07:05:55;;;;;;;37.95;15.15;;;;;;;9.65;100.00;101025.16;5197069;28;20267;-72
2021/11/13 07:08:25;;;;;;;41.42;14.85;;;;;;;9.65;100.00;101030.50;5206671;28;20398;-73
2021/11/13 07:10:56;;;;;;;42.10;16.10;;;;;;;9.65;100.00;101037.69;5206020;28;20024;-73
2021/11/13 07:13:27;;;;;;;44.17;15.23;;;;;;;9.67;100.00;101044.56;5184592;28;20060;-73
2021/11/13 07:15:57;;;;;;;35.92;16.25;;;;;;;9.70;100.00;101035.41;5211209;28;20028;-73
2021/11/13 07:18:28;;;;;;;37.95;18.27;;;;;;;9.72;100.00;101047.63;5213036;28;20021;-73
2021/11/13 07:21:01;;;;;;;30.98;13.43;;;;;;;9.76;100.00;101053.53;5194846;28;20017;-73
2021/11/13 07:23:33;;;;;;;55.25;22.38;;;;;;;9.76;100.00;101056.19;5214083;28;20097;-73
2021/11/13 07:26:06;;;;;;;38.53;15.65;;;;;;;9.80;100.00;101055.72;5210228;28;20025;-73
2021/11/13 07:28:39;;;;;;;52.17;23.35;;;;;;;9.77;100.00;101061.38;5206190;28;20143;-73
2021/11/13 07:31:14;;;;;;;42.08;17.75;;;;;;;9.74;100.00;101056.38;5213028;28;20017;-73
2021/11/13 07:33:49;;;;;;;31.40;11.88;;;;;;;9.74;100.00;101058.16;5193050;28;20047;-74
2021/11/13 07:36:20;;;;;;;34.58;13.48;;;;;;;9.76;100.00;101067.75;5211864;28;20013;-72
2021/11/13 07:38:52;;;;;;;44.38;24.65;;;;;;;9.82;100.00;101074.31;5206024;28;20515;-72
2021/11/13 07:41:24;;;;;;;27.88;12.73;;;;;;;9.81;100.00;101073.47;5214054;28;20033;-73
2021/11/13 07:43:55;;;;;;;28.38;12.15;;;;;;;9.82;100.00;101069.81;5209317;28;20069;-73
2021/11/13 07:46:26;;;;;;;66.57;38.08;;;;;;;9.88;100.00;101062.97;5215734;28;20021;-73
2021/11/13 07:48:57;;;;;;;39.40;17.70;;;;;;;9.93;100.00;101070.53;5212608;28;20073;-73
2021/11/13 07:51:27;;;;;;;28.95;11.40;;;;;;;9.92;100.00;101067.03;5212882;28;20025;-73
2021/11/13 07:53:58;;;;;;;24.98;11.55;;;;;;;9.93;100.00;101076.75;5217398;28;20033;-73
2021/11/13 07:56:29;;;;;;;32.72;12.75;;;;;;;9.95;100.00;101077.44;5211433;28;20463;-73
2021/11/13 07:58:59;;;;;;;24.67;10.48;;;;;;;9.95;100.00;101068.56;5213258;28;20389;-73
2021/11/13 08:01:30;;;;;;;25.20;11.20;;;;;;;9.94;100.00;101085.63;5208993;28;20107;-74
2021/11/13 08:04:00;;;;;;;44.15;18.58;;;;;;;9.99;100.00;101083.31;5203499;28;20028;-72
2021/11/13 08:06:31;;;;;;;41.95;16.25;;;;;;;10.00;100.00;101085.88;5216320;28;20032;-73
2021/11/13 08:09:03;;;;;;;29.35;13.48;;;;;;;10.05;100.00;101082.72;5189662;28;20079;-72
2021/11/13 08:11:34;;;;;;;25.52;14.88;;;;;;;10.10;100.00;101096.47;5209918;28;20020;-72
2021/11/13 08:14:05;;;;;;;36.13;13.52;;;;;;;10.12;100.00;101095.31;5209351;28;20028;-72
2021/11/13 08:16:36;;;;;;;24.15;13.57;;;;;;;10.16;100.00;101098.53;5206283;28;20488;-73
2021/11/13 08:19:07;;;;;;;26.08;10.55;;;;;;;10.14;100.00;101095.19;5207102;28;20041;-73
2021/11/13 08:21:38;;;;;;;22.67;9.82;;;;;;;10.12;100.00;101100.69;5213840;28;20025;-72
2021/11/13 08:24:08;;;;;;;23.50;11.00;;;;;;;10.16;100.00;101101.22;5212107;28;20086;-73
2021/11/13 08:26:39;;;;;;;28.50;11.52;;;;;;;10.18;100.00;101101.88;5206521;28;20017;-72
2021/11/13 08:29:11;;;;;;;20.55;8.50;;;;;;;10.16;100.00;101108.41;5189014;28;20524;-73
2021/11/13 08:31:42;;;;;;;17.75;8.27;;;;;;;10.21;100.00;101106.09;5209813;28;20091;-72
2021/11/13 08:34:13;;;;;;;15.68;8.25;;;;;;;10.21;100.00;101106.94;5210814;28;20032;-72
2021/11/13 08:36:44;;;;;;;21.88;10.38;;;;;;;10.25;100.00;101107.50;5212923;28;20029;-72
2021/11/13 08:39:14;;;;;;;24.92;10.25;;;;;;;10.28;100.00;101110.69;5208241;28;20031;-72
2021/11/13 08:41:45;;;;;;;23.85;9.15;;;;;;;10.33;100.00;101110.22;5207339;28;20293;-73
2021/11/13 08:44:15;;;;;;;22.95;8.90;;;;;;;10.33;100.00;101115.59;5211046;28;20033;-72
2021/11/13 08:46:46;;;;;;;21.98;9.02;;;;;;;10.34;100.00;101115.44;5208434;28;20463;-73
2021/11/13 08:49:16;;;;;;;20.13;9.05;;;;;;;10.40;100.00;101113.13;5190263;28;20090;-72
2021/11/13 08:51:47;;;;;;;20.35;10.52;;;;;;;10.45;100.00;101119.69;5209030;28;20036;-73
2021/11/13 08:54:18;;;;;;;19.15;9.10;;;;;;;10.41;100.00;101121.00;5218046;28;20028;-73
2021/11/13 08:56:48;;;;;;;38.78;20.27;;;;;;;10.42;100.00;101129.91;5212460;28;20391;-73
2021/11/13 08:59:19;;;;;;;69.55;36.20;;;;;;;10.37;100.00;101122.31;5207823;28;20022;-74
2021/11/13 09:01:50;;;;;;;41.85;26.42;;;;;;;10.30;100.00;101129.31;5218576;28;20047;-73
2021/11/13 09:04:21;;;;;;;42.95;27.83;;;;;;;10.34;100.00;101123.50;5211412;28;20062;-73
2021/11/13 09:06:52;;;;;;;42.42;26.85;;;;;;;10.26;100.00;101133.31;5214710;28;20056;-73
2021/11/13 09:09:24;;;;;;;28.80;17.52;;;;;;;10.22;100.00;101129.22;5213244;28;20029;-73
2021/11/13 09:11:59;;;;;;;29.85;17.00;;;;;;;10.31;100.00;101134.53;5206123;28;20684;-73
2021/11/13 09:14:32;;;;;;;34.20;19.33;;;;;;;10.32;100.00;101141.56;5211289;28;20396;-73
2021/11/13 09:17:03;;;;;;;24.35;10.52;;;;;;;10.41;100.00;101138.94;5210385;28;20021;-73
2021/11/13 09:19:34;;;;;;;23.17;9.65;;;;;;;10.49;100.00;101142.53;5210556;28;20020;-73
2021/11/13 09:22:05;;;;;;;25.13;9.90;;;;;;;10.51;100.00;101140.53;5212865;28;20094;-73
2021/11/13 09:24:35;;;;;;;29.20;11.52;;;;;;;10.62;100.00;101145.59;5202899;28;20019;-73
2021/11/13 09:27:06;;;;;;;29.67;12.38;;;;;;;10.76;100.00;101156.75;5210372;28;20140;-73
2021/11/13 09:29:37;;;;;;;23.70;9.30;;;;;;;10.77;100.00;101156.59;5208840;28;20070;-73
2021/11/13 09:32:08;;;;;;;25.63;10.52;;;;;;;10.87;100.00;101151.94;5212882;28;20033;-74
2021/11/13 09:34:39;;;;;;;24.05;9.38;;;;;;;10.90;100.00;101156.16;5211028;28;20025;-73
2021/11/13 09:37:10;;;;;;;19.10;9.50;;;;;;;10.96;100.00;101160.03;5210729;28;20037;-73
2021/11/13 09:39:40;;;;;;;21.05;9.38;;;;;;;10.94;100.00;101153.97;5193672;28;20036;-73
2021/11/13 09:42:11;;;;;;;20.38;8.60;;;;;;;10.93;100.00;101154.97;5209718;28;20474;-74
2021/11/13 09:44:42;;;;;;;21.73;9.10;;;;;;;10.90;100.00;101164.22;5205909;28;20033;-73
2021/11/13 09:47:13;;;;;;;20.42;8.73;;;;;;;10.80;100.00;101166.19;5208859;28;20739;-73
2021/11/13 09:49:44;;;;;;;21.92;8.43;;;;;;;10.78;100.00;101170.84;5210998;28;20060;-73
2021/11/13 09:52:15;;;;;;;19.48;9.77;;;;;;;10.73;100.00;101171.31;5207786;28;20035;-73
2021/11/13 09:54:46;;;;;;;27.02;12.43;;;;;;;10.70;100.00;101178.88;5204001;28;20021;-73
2021/11/13 09:57:17;;;;;;;24.95;10.75;;;;;;;10.71;100.00;101170.66;5211233;28;20391;-73
2021/11/13 09:59:47;;;;;;;27.88;14.35;;;;;;;10.71;100.00;101172.50;5211048;28;20017;-73
2021/11/13 10:02:18;;;;;;;21.52;10.90;;;;;;;10.76;100.00;101181.75;5209616;28;20317;-73
2021/11/13 10:04:48;;;;;;;27.80;14.43;;;;;;;10.79;100.00;101185.94;5210551;28;20025;-73
2021/11/13 10:07:19;;;;;;;27.05;10.82;;;;;;;10.81;100.00;101179.44;5208121;28;20382;-73
2021/11/13 10:09:50;;;;;;;29.08;13.90;;;;;;;10.89;100.00;101183.97;5216938;28;20024;-73
2021/11/13 10:12:33;;;;;;;30.92;14.02;;;;;;;10.97;100.00;101178.66;5204555;28;20021;-73
2021/11/13 10:15:32;;;;;;;51.75;32.47;;;;;;;11.10;100.00;101172.84;5208734;28;20028;-73
2021/11/13 10:18:06;;;;;;;32.20;17.52;;;;;;;11.33;100.00;101183.84;5192323;28;20100;-73
2021/11/13 10:20:41;;;;;;;34.20;15.95;;;;;;;11.41;100.00;101181.19;5192800;28;20052;-73
2021/11/13 10:23:19;;;;;;;30.90;13.32;;;;;;;11.60;100.00;101186.28;5205410;28;20474;-73
2021/11/13 10:26:05;;;;;;;30.58;14.95;;;;;;;11.76;100.00;101179.25;5212222;28;20310;-73
2021/11/13 10:28:51;;;;;;;26.45;12.32;;;;;;;11.73;100.00;101183.09;5210146;28;20393;-73
2021/11/13 10:31:24;;;;;;;30.05;11.07;;;;;;;11.89;100.00;101179.63;5206698;28;20346;-73
2021/11/13 10:33:59;;;;;;;37.40;22.13;;;;;;;12.26;100.00;101184.50;5213492;28;20021;-73
2021/11/13 10:36:35;;;;;;;20.30;9.35;;;;;;;12.24;100.00;101183.81;5205316;28;20049;-73
2021/11/13 10:39:14;;;;;;;16.55;8.55;;;;;;;12.36;100.00;101176.28;5212822;28;20024;-73
2021/11/13 10:41:51;;;;;;;15.13;7.22;;;;;;;12.16;100.00;101181.16;5212757;28;20028;-73
2021/11/13 10:44:28;;;;;;;17.83;6.95;;;;;;;12.24;100.00;101185.66;5209289;28;20029;-73
2021/11/13 10:47:07;;;;;;;12.60;6.03;;;;;;;12.14;100.00;101189.38;5212386;28;20142;-73
2021/11/13 10:49:38;;;;;;;17.00;6.78;;;;;;;12.00;100.00;101187.38;5209717;28;20025;-73
2021/11/13 10:52:10;;;;;;;18.27;9.55;;;;;;;11.83;100.00;101183.81;5210086;28;20052;-73
2021/11/13 10:54:45;;;;;;;14.05;7.60;;;;;;;11.68;100.00;101186.28;5209247;28;20021;-73
2021/11/13 10:57:30;;;;;;;13.32;6.63;;;;;;;11.50;100.00;101187.44;5208008;28;20086;-73
2021/11/13 11:00:13;;;;;;;13.23;6.38;;;;;;;11.28;100.00;101181.63;5215111;28;20055;-73
2021/11/13 11:03:01;;;;;;;91.35;44.00;;;;;;;11.16;100.00;101182.94;5201621;28;20029;-73
2021/11/13 11:05:48;;;;;;;31.42;13.45;;;;;;;11.13;100.00;101184.09;5213151;28;20056;-73
2021/11/13 11:08:28;;;;;;;208.13;108.45;;;;;;;11.20;100.00;101186.16;5190449;28;20025;-73
2021/11/13 11:11:00;;;;;;;26.83;17.13;;;;;;;11.35;100.00;101189.91;5205887;28;20028;-73
2021/11/13 11:13:47;;;;;;;34.05;20.45;;;;;;;11.44;100.00;101183.53;5207461;28;20029;-73
2021/11/13 11:16:23;;;;;;;22.63;11.80;;;;;;;11.60;100.00;101186.28;5211585;28;20020;-73
2021/11/13 11:18:58;;;;;;;18.00;9.23;;;;;;;11.72;100.00;101184.09;5210052;28;20309;-73
2021/11/13 11:21:36;;;;;;;;;;;;;;;11.81;100.00;101177.75;5210875;28;20013;-73
2021/11/13 11:24:08;;;;;;;13.73;7.53;;;;;;;11.83;100.00;101178.44;5208846;28;20395;-73
2021/11/13 11:26:41;;;;;;;15.85;9.88;;;;;;;11.81;100.00;101176.91;5210967;28;20078;-73
2021/11/13 11:29:13;;;;;;;15.60;9.10;;;;;;;11.75;100.00;101178.41;5202819;28;20029;-73
2021/11/13 11:31:48;;;;;;;14.77;8.52;;;;;;;11.70;100.00;101186.13;5212397;28;20029;-73
2021/11/13 11:34:20;;;;;;;16.02;7.70;;;;;;;11.66;100.00;101184.78;5214839;28;20425;-73